DLH5LL EDDF-OMDB
Flight info
| Callsign | DLH5LL |
|---|---|
| Flight time | N/A |
| Altitude | 37000 |
| Route | CINDY8S CINDY Z74 LAMPU DCT NOMBO Y161 MAH DCT LATLO DCT OBEDI DCT BABOL DCT NISVA DCT USALI DCT OTKOK DCT RODIP DCT BELGI DCT KETEK/N0474F390 UT38 VESAR L620 BALMA UR655 LEBOR R655 KTN R785 RASLI P559 TRF R23 NEVOL N318 TAMRO T503 KSA M321 RESAL T533 RAPMA DCT KUVSO DCT KATIT DCT PEKEM M628 RIGIL G783 ELUDA/N0493F350 G783 ASPED Q308 KIPOK/N0495F340 Q568 IMPED |
| Aircraft | A343/H-SDE2E3FGHIJ4J5M1RWXY/LB1D1 |
Departure
| Time | 2026-05-05 09:58 |
|---|---|
| Airport | Frankfurt Main Airport (EDDF) |
Arrival
| Time | N/A |
|---|---|
| Airport | Dubai International Airport (OMDB) |
| Time | Latitude | Longitude | Altitude | Speed | Heading |
|---|---|---|---|---|---|
| 2026-05-05 09:47 | 50.04680 | 8.56492 | 365 ft | 0 kts | 250° |
| 2026-05-05 09:47 | 50.04680 | 8.56491 | 365 ft | 1 kts | 250° |
| 2026-05-05 09:48 | 50.04665 | 8.56430 | 367 ft | 9 kts | 250° |
| 2026-05-05 09:48 | 50.04634 | 8.56296 | 364 ft | 29 kts | 250° |
| 2026-05-05 09:48 | 50.04584 | 8.56083 | 367 ft | 5 kts | 249° |
| 2026-05-05 09:48 | 50.04562 | 8.56002 | 362 ft | 0 kts | 242° |
| 2026-05-05 09:49 | 50.04561 | 8.55999 | 364 ft | 0 kts | 242° |
| 2026-05-05 09:49 | 50.04559 | 8.55993 | 364 ft | 1 kts | 242° |
| 2026-05-05 09:49 | 50.04558 | 8.55992 | 364 ft | 0 kts | 241° |
| 2026-05-05 09:50 | 50.04541 | 8.55970 | 365 ft | 8 kts | 215° |
| 2026-05-05 09:50 | 50.04461 | 8.55924 | 365 ft | 12 kts | 197° |
| 2026-05-05 09:50 | 50.04441 | 8.55915 | 367 ft | 2 kts | 195° |
| 2026-05-05 09:50 | 50.04421 | 8.55910 | 368 ft | 3 kts | 188° |
| 2026-05-05 09:51 | 50.04395 | 8.55911 | 365 ft | 4 kts | 174° |
| 2026-05-05 09:51 | 50.04366 | 8.55918 | 364 ft | 5 kts | 170° |
| 2026-05-05 09:51 | 50.04336 | 8.55933 | 363 ft | 4 kts | 160° |
| 2026-05-05 09:51 | 50.04306 | 8.55950 | 363 ft | 5 kts | 161° |
| 2026-05-05 09:52 | 50.04264 | 8.55952 | 360 ft | 7 kts | 191° |
| 2026-05-05 09:52 | 50.04233 | 8.55904 | 366 ft | 7 kts | 242° |
| 2026-05-05 09:52 | 50.04214 | 8.55832 | 362 ft | 8 kts | 249° |
| 2026-05-05 09:52 | 50.04189 | 8.55733 | 366 ft | 12 kts | 249° |
| 2026-05-05 09:53 | 50.04150 | 8.55572 | 361 ft | 21 kts | 249° |
| 2026-05-05 09:53 | 50.04098 | 8.55350 | 360 ft | 23 kts | 250° |
| 2026-05-05 09:53 | 50.04041 | 8.55115 | 361 ft | 24 kts | 249° |
| 2026-05-05 09:53 | 50.03980 | 8.54858 | 365 ft | 27 kts | 250° |
| 2026-05-05 09:54 | 50.03912 | 8.54572 | 356 ft | 29 kts | 250° |
| 2026-05-05 09:54 | 50.03866 | 8.54389 | 359 ft | 11 kts | 243° |
| 2026-05-05 09:54 | 50.03815 | 8.54268 | 359 ft | 15 kts | 236° |
| 2026-05-05 09:54 | 50.03773 | 8.54107 | 356 ft | 17 kts | 249° |
| 2026-05-05 09:55 | 50.03741 | 8.53977 | 353 ft | 14 kts | 250° |
| 2026-05-05 09:55 | 50.03704 | 8.53818 | 351 ft | 18 kts | 250° |
| 2026-05-05 09:55 | 50.03655 | 8.53623 | 350 ft | 21 kts | 249° |
| 2026-05-05 09:55 | 50.03599 | 8.53396 | 355 ft | 24 kts | 249° |
| 2026-05-05 09:56 | 50.03538 | 8.53139 | 348 ft | 27 kts | 250° |
| 2026-05-05 09:56 | 50.03469 | 8.52861 | 336 ft | 29 kts | 245° |
| 2026-05-05 09:56 | 50.03425 | 8.52699 | 334 ft | 13 kts | 248° |
| 2026-05-05 09:56 | 50.03367 | 8.52596 | 335 ft | 10 kts | 192° |
| 2026-05-05 09:57 | 50.03281 | 8.52594 | 335 ft | 15 kts | 179° |
| 2026-05-05 09:57 | 50.03056 | 8.52598 | 339 ft | 57 kts | 180° |
| 2026-05-05 09:57 | 50.02485 | 8.52603 | 338 ft | 105 kts | 179° |
| 2026-05-05 09:57 | 50.01616 | 8.52612 | 335 ft | 143 kts | 179° |
| 2026-05-05 09:58 | 50.00510 | 8.52623 | 334 ft | 174 kts | 180° |
| 2026-05-05 09:58 | 49.99273 | 8.52620 | 699 ft | 178 kts | 180° |
| 2026-05-05 09:58 | 49.98041 | 8.52600 | 1234 ft | 177 kts | 180° |
| 2026-05-05 09:58 | 49.96816 | 8.52920 | 1638 ft | 187 kts | 158° |
| 2026-05-05 09:59 | 49.95777 | 8.54322 | 1818 ft | 215 kts | 121° |
| 2026-05-05 09:59 | 49.94995 | 8.56450 | 2215 ft | 236 kts | 115° |
| 2026-05-05 09:59 | 49.94254 | 8.58800 | 2850 ft | 248 kts | 116° |
| 2026-05-05 09:59 | 49.93635 | 8.61329 | 3563 ft | 256 kts | 102° |
| 2026-05-05 10:00 | 49.93444 | 8.64119 | 4317 ft | 264 kts | 91° |
| 2026-05-05 10:00 | 49.93489 | 8.66999 | 5099 ft | 269 kts | 89° |
| 2026-05-05 10:00 | 49.93414 | 8.69919 | 5883 ft | 272 kts | 104° |
| 2026-05-05 10:00 | 49.92648 | 8.72575 | 6652 ft | 272 kts | 130° |
| 2026-05-05 10:01 | 49.91177 | 8.74405 | 7343 ft | 274 kts | 155° |
| 2026-05-05 10:01 | 49.89419 | 8.75574 | 8128 ft | 276 kts | 156° |
| 2026-05-05 10:01 | 49.87889 | 8.77300 | 8871 ft | 280 kts | 129° |
| 2026-05-05 10:01 | 49.86714 | 8.79716 | 9658 ft | 281 kts | 131° |
| 2026-05-05 10:02 | 49.85401 | 8.81998 | 10248 ft | 290 kts | 134° |
| 2026-05-05 10:02 | 49.83959 | 8.84309 | 10535 ft | 307 kts | 136° |
| 2026-05-05 10:02 | 49.82413 | 8.86717 | 10817 ft | 323 kts | 136° |
| 2026-05-05 10:02 | 49.80789 | 8.89249 | 11092 ft | 339 kts | 136° |
| 2026-05-05 10:03 | 49.79099 | 8.91916 | 11360 ft | 354 kts | 135° |
| 2026-05-05 10:03 | 49.77352 | 8.94710 | 11696 ft | 367 kts | 135° |
| 2026-05-05 10:03 | 49.75570 | 8.97584 | 12199 ft | 374 kts | 135° |
| 2026-05-05 10:03 | 49.73763 | 9.00510 | 12785 ft | 379 kts | 135° |
| 2026-05-05 10:04 | 49.71934 | 9.03475 | 13387 ft | 383 kts | 135° |
| 2026-05-05 10:04 | 49.70084 | 9.06471 | 13952 ft | 388 kts | 136° |
| 2026-05-05 10:04 | 49.68212 | 9.09496 | 14515 ft | 391 kts | 136° |
| 2026-05-05 10:04 | 49.66327 | 9.12536 | 15126 ft | 393 kts | 136° |
| 2026-05-05 10:05 | 49.64436 | 9.15582 | 15757 ft | 394 kts | 136° |
| 2026-05-05 10:05 | 49.62536 | 9.18636 | 16377 ft | 395 kts | 136° |
| 2026-05-05 10:05 | 49.60625 | 9.21705 | 16996 ft | 397 kts | 136° |
| 2026-05-05 10:05 | 49.58704 | 9.24786 | 17586 ft | 400 kts | 136° |
| 2026-05-05 10:06 | 49.56767 | 9.27887 | 18169 ft | 403 kts | 136° |
| 2026-05-05 10:06 | 49.54816 | 9.31009 | 18666 ft | 406 kts | 136° |
| 2026-05-05 10:06 | 49.52843 | 9.34161 | 19110 ft | 410 kts | 136° |
| 2026-05-05 10:06 | 49.50855 | 9.37334 | 19594 ft | 414 kts | 136° |
| 2026-05-05 10:07 | 49.48848 | 9.40533 | 20051 ft | 417 kts | 136° |
| 2026-05-05 10:07 | 49.46824 | 9.43754 | 20508 ft | 420 kts | 136° |
| 2026-05-05 10:07 | 49.44784 | 9.46998 | 20987 ft | 423 kts | 136° |
| 2026-05-05 10:07 | 49.42731 | 9.50259 | 21437 ft | 427 kts | 136° |